createdAt,value
2022-12-14T00:01:54.727Z,0.44
2022-12-14T00:04:22.816Z,0.52
2022-12-14T00:06:52.558Z,0.59
2022-12-14T00:09:20.652Z,0.62
2022-12-14T00:11:50.265Z,0.62
2022-12-14T00:14:18.363Z,0.63
2022-12-14T00:16:46.881Z,0.59
2022-12-14T00:19:15.583Z,0.58
2022-12-14T00:21:43.619Z,0.55
2022-12-14T00:24:13.066Z,0.54
2022-12-14T00:26:41.064Z,0.52
2022-12-14T00:29:09.069Z,0.51
2022-12-14T00:31:37.481Z,0.50
2022-12-14T00:34:05.524Z,0.47
2022-12-14T00:36:33.542Z,0.44
2022-12-14T00:39:01.554Z,0.39
2022-12-14T00:41:31.065Z,0.37
2022-12-14T00:43:59.181Z,0.35
2022-12-14T00:46:27.251Z,0.32
2022-12-14T00:48:55.289Z,0.32
2022-12-14T00:51:23.349Z,0.24
2022-12-14T00:53:51.327Z,0.24
2022-12-14T00:56:19.336Z,0.19
2022-12-14T00:58:53.024Z,0.04
2022-12-14T01:01:22.083Z,-0.01
2022-12-14T01:03:50.426Z,-0.09
2022-12-14T01:06:20.788Z,-0.14
2022-12-14T01:08:49.564Z,-0.13
2022-12-14T01:11:17.944Z,-0.13
2022-12-14T01:13:49.303Z,-0.15
2022-12-14T01:16:19.572Z,-0.21
2022-12-14T01:18:47.660Z,-0.25
2022-12-14T01:21:17.964Z,-0.30
2022-12-14T01:23:47.305Z,-0.34
2022-12-14T01:26:17.051Z,-0.40
2022-12-14T01:28:46.061Z,-0.43
2022-12-14T01:31:15.951Z,-0.49
2022-12-14T01:33:46.131Z,-0.54
2022-12-14T01:36:15.585Z,-0.60
2022-12-14T01:38:43.988Z,-0.66
2022-12-14T01:41:23.257Z,-0.70
2022-12-14T01:43:53.270Z,-0.79
2022-12-14T01:46:26.886Z,-0.81
2022-12-14T01:49:03.169Z,-0.83
2022-12-14T01:51:33.005Z,-0.87
2022-12-14T01:54:02.788Z,-0.91
2022-12-14T01:56:32.553Z,-0.96
2022-12-14T01:59:05.558Z,-1.02
2022-12-14T02:01:33.929Z,-1.06
2022-12-14T02:04:05.012Z,-1.10
2022-12-14T02:06:36.380Z,-1.12
2022-12-14T02:09:07.465Z,-1.14
2022-12-14T02:11:44.076Z,-1.23
2022-12-14T02:14:12.066Z,-1.28
2022-12-14T02:16:40.705Z,-1.27
2022-12-14T02:19:10.319Z,-1.26
2022-12-14T02:21:55.806Z,-1.25
2022-12-14T02:24:48.564Z,-1.27
2022-12-14T02:27:43.734Z,-1.32
2022-12-14T02:30:16.454Z,-1.32
2022-12-14T02:33:03.462Z,-1.34
2022-12-14T02:35:39.960Z,-1.39
2022-12-14T02:38:18.772Z,-1.43
2022-12-14T02:40:58.748Z,-1.48
2022-12-14T02:43:33.366Z,-1.53
2022-12-14T02:46:13.156Z,-1.57
2022-12-14T02:48:47.234Z,-1.67
2022-12-14T02:51:21.669Z,-1.73
2022-12-14T02:53:58.186Z,-1.74
2022-12-14T02:56:32.981Z,-1.73
2022-12-14T02:59:02.723Z,-1.72
2022-12-14T03:01:32.960Z,-1.73
2022-12-14T03:04:03.466Z,-1.75
2022-12-14T03:06:31.586Z,-1.79
2022-12-14T03:09:05.259Z,-1.89
2022-12-14T03:11:41.589Z,-1.87
2022-12-14T03:14:14.619Z,-1.87
2022-12-14T03:16:48.237Z,-1.86
2022-12-14T03:19:21.721Z,-1.89
2022-12-14T03:21:53.114Z,-1.90
2022-12-14T03:24:25.529Z,-1.91
2022-12-14T03:26:57.571Z,-1.93
2022-12-14T03:29:29.370Z,-1.97
2022-12-14T03:32:01.321Z,-2.00
2022-12-14T03:34:33.380Z,-2.02
2022-12-14T03:37:09.646Z,-2.04
2022-12-14T03:39:39.904Z,-2.07
2022-12-14T03:42:15.252Z,-2.07
2022-12-14T03:44:49.980Z,-2.08
2022-12-14T03:47:42.443Z,-2.12
2022-12-14T03:50:14.859Z,-2.13
2022-12-14T03:52:50.593Z,-2.19
2022-12-14T03:55:27.105Z,-2.22
2022-12-14T03:58:08.862Z,-2.23
2022-12-14T04:00:43.895Z,-2.28
2022-12-14T04:03:22.310Z,-2.29
2022-12-14T04:05:53.401Z,-2.28
2022-12-14T04:08:25.802Z,-2.26
2022-12-14T04:11:21.644Z,-2.26
2022-12-14T04:14:14.796Z,-2.28
2022-12-14T04:17:03.817Z,-2.28
2022-12-14T04:19:40.869Z,-2.29
2022-12-14T04:22:12.879Z,-2.30
2022-12-14T04:25:03.474Z,-2.29
2022-12-14T04:27:37.684Z,-2.32
2022-12-14T04:30:06.693Z,-2.34
2022-12-14T04:32:38.847Z,-2.34
2022-12-14T04:35:16.337Z,-2.36
2022-12-14T04:37:46.443Z,-2.42
2022-12-14T04:40:21.490Z,-2.42
2022-12-14T04:42:54.460Z,-2.41
2022-12-14T04:45:26.460Z,-2.42
2022-12-14T04:48:01.236Z,-2.41
2022-12-14T04:50:35.836Z,-2.41
2022-12-14T04:53:10.397Z,-2.46
2022-12-14T04:55:45.118Z,-2.52
2022-12-14T04:58:22.096Z,-2.49
2022-12-14T05:01:06.239Z,-2.48
2022-12-14T05:03:37.300Z,-2.47
2022-12-14T05:06:16.977Z,-2.48
2022-12-14T05:09:05.066Z,-2.51
2022-12-14T05:11:54.553Z,-2.51
2022-12-14T05:14:29.603Z,-2.52
2022-12-14T05:17:02.279Z,-2.54
2022-12-14T05:19:33.222Z,-2.57
2022-12-14T05:22:07.237Z,-2.58
2022-12-14T05:24:35.577Z,-2.58
2022-12-14T05:27:03.585Z,-2.59
2022-12-14T05:29:31.561Z,-2.61
2022-12-14T05:31:59.696Z,-2.69
2022-12-14T05:34:27.702Z,-2.71
2022-12-14T05:36:55.801Z,-2.66
2022-12-14T05:39:25.252Z,-2.67
2022-12-14T05:41:53.629Z,-2.67
2022-12-14T05:44:21.829Z,-2.66
2022-12-14T05:46:49.953Z,-2.66
2022-12-14T05:49:17.986Z,-2.72
2022-12-14T05:51:45.973Z,-2.71
2022-12-14T05:54:14.052Z,-2.72
2022-12-14T05:56:43.389Z,-2.72
2022-12-14T05:59:15.534Z,-2.72
2022-12-14T06:01:44.188Z,-2.79
2022-12-14T06:04:12.737Z,-2.81
2022-12-14T06:06:40.892Z,-2.80
2022-12-14T06:09:11.843Z,-2.75
2022-12-14T06:11:41.325Z,-2.75
2022-12-14T06:14:11.609Z,-2.72
2022-12-14T06:16:41.293Z,-2.71
2022-12-14T06:19:09.840Z,-2.71
2022-12-14T06:21:40.052Z,-2.73
2022-12-14T06:24:09.533Z,-2.78
2022-12-14T06:26:37.958Z,-2.80
2022-12-14T06:29:05.944Z,-2.84
2022-12-14T06:31:35.406Z,-2.80
2022-12-14T06:34:04.186Z,-2.77
2022-12-14T06:36:34.124Z,-2.76
2022-12-14T06:39:04.110Z,-2.74
2022-12-14T06:41:32.214Z,-2.74
2022-12-14T06:44:05.542Z,-2.72
2022-12-14T06:46:35.298Z,-2.71
2022-12-14T06:49:04.117Z,-2.73
2022-12-14T06:51:32.164Z,-2.75
2022-12-14T06:54:00.183Z,-2.73
2022-12-14T06:56:28.926Z,-2.76
2022-12-14T06:58:57.638Z,-2.77
2022-12-14T07:01:26.944Z,-2.77
2022-12-14T07:03:58.402Z,-2.77
2022-12-14T07:06:27.808Z,-2.77
2022-12-14T07:08:57.438Z,-2.80
2022-12-14T07:11:26.154Z,-2.81
2022-12-14T07:13:54.275Z,-2.82
2022-12-14T07:16:23.819Z,-2.82
2022-12-14T07:18:52.453Z,-2.82
2022-12-14T07:21:23.620Z,-2.86
2022-12-14T07:23:52.456Z,-2.89
2022-12-14T07:26:22.714Z,-2.89
2022-12-14T07:28:51.483Z,-2.90
2022-12-14T07:31:21.867Z,-2.92
2022-12-14T07:33:50.637Z,-2.91
2022-12-14T07:36:21.555Z,-2.88
2022-12-14T07:38:50.854Z,-2.87
2022-12-14T07:41:23.159Z,-2.87
2022-12-14T07:43:52.226Z,-2.84
2022-12-14T07:46:23.732Z,-2.83
2022-12-14T07:48:53.437Z,-2.82
2022-12-14T07:51:24.385Z,-2.79
2022-12-14T07:53:52.762Z,-2.80
2022-12-14T07:56:22.326Z,-2.77
2022-12-14T07:58:50.721Z,-2.74
2022-12-14T08:01:21.243Z,-2.74
2022-12-14T08:03:51.431Z,-2.69
2022-12-14T08:06:20.871Z,-2.67
2022-12-14T08:08:51.073Z,-2.64
2022-12-14T08:11:19.200Z,-2.60
2022-12-14T08:13:48.541Z,-2.58
2022-12-14T08:16:17.737Z,-2.52
2022-12-14T08:18:45.813Z,-2.49
2022-12-14T08:21:15.441Z,-2.44
2022-12-14T08:23:43.473Z,-2.42
2022-12-14T08:26:12.849Z,-2.37
2022-12-14T08:28:40.844Z,-2.33
2022-12-14T08:31:10.880Z,-2.26
2022-12-14T08:33:40.103Z,-2.22
2022-12-14T08:36:09.676Z,-2.16
2022-12-14T08:38:38.088Z,-2.12
2022-12-14T08:41:07.219Z,-2.08
2022-12-14T08:43:36.995Z,-2.02
2022-12-14T08:46:05.577Z,-1.92
2022-12-14T08:48:33.645Z,-1.83
2022-12-14T08:51:05.742Z,-1.73
2022-12-14T08:53:34.386Z,-1.63
2022-12-14T08:56:06.269Z,-1.54
2022-12-14T08:58:36.249Z,-1.44
2022-12-14T09:01:05.412Z,-1.36
2022-12-14T09:03:34.012Z,-1.31
2022-12-14T09:06:06.664Z,-1.23
2022-12-14T09:08:35.138Z,-1.17
2022-12-14T09:11:04.524Z,-1.13
2022-12-14T09:13:33.857Z,-1.08
2022-12-14T09:16:06.701Z,-1.02
2022-12-14T09:18:35.735Z,-0.94
2022-12-14T09:21:04.514Z,-0.87
2022-12-14T09:23:34.928Z,-0.79
2022-12-14T09:26:04.394Z,-0.71
2022-12-14T09:28:34.292Z,-0.62
2022-12-14T09:31:05.561Z,-0.55
2022-12-14T09:33:34.543Z,-0.45
2022-12-14T09:36:03.745Z,-0.35
2022-12-14T09:38:33.905Z,-0.25
2022-12-14T09:41:07.206Z,-0.13
2022-12-14T09:43:40.937Z,-0.08
2022-12-14T09:46:33.338Z,-0.05
2022-12-14T09:49:03.425Z,0.09
2022-12-14T09:51:35.191Z,0.40
2022-12-14T09:54:07.567Z,1.02
2022-12-14T09:56:37.905Z,2.26
2022-12-14T09:59:06.682Z,3.18
2022-12-14T10:04:58.757Z,4.98
2022-12-14T10:07:34.670Z,5.61
2022-12-14T10:10:06.313Z,5.97
2022-12-14T10:12:47.363Z,5.74
2022-12-14T10:15:25.683Z,5.98
2022-12-14T10:18:33.842Z,6.78
2022-12-14T10:21:07.057Z,7.85
2022-12-14T10:23:36.702Z,7.92
2022-12-14T10:26:09.051Z,8.37
2022-12-14T10:28:45.967Z,8.66
2022-12-14T10:31:19.666Z,8.19
2022-12-14T10:33:49.121Z,8.32
2022-12-14T10:36:23.423Z,8.47
2022-12-14T10:38:59.623Z,8.53
2022-12-14T10:41:39.618Z,8.23
2022-12-14T10:44:18.989Z,8.92
2022-12-14T10:46:53.614Z,9.61
2022-12-14T10:49:27.582Z,9.68
2022-12-14T10:52:02.433Z,9.70
2022-12-14T10:54:35.140Z,9.08
2022-12-14T10:57:03.211Z,8.29
2022-12-14T10:59:40.583Z,7.20
2022-12-14T11:02:16.952Z,6.23
2022-12-14T11:04:52.359Z,5.54
2022-12-14T11:07:22.584Z,5.26
2022-12-14T11:09:50.638Z,4.94
2022-12-14T11:12:22.059Z,4.63
2022-12-14T11:14:56.241Z,4.47
2022-12-14T11:17:37.267Z,4.51
2022-12-14T11:20:17.902Z,4.53
2022-12-14T11:22:47.685Z,4.42
2022-12-14T11:25:34.937Z,4.27
2022-12-14T11:28:06.692Z,4.56
2022-12-14T11:30:34.980Z,4.79
2022-12-14T11:33:03.100Z,5.59
2022-12-14T11:35:32.560Z,6.52
2022-12-14T11:38:02.171Z,7.37
2022-12-14T11:40:30.211Z,8.20
2022-12-14T11:43:04.584Z,8.94
2022-12-14T11:45:34.927Z,9.49
2022-12-14T11:48:29.243Z,10.09
2022-12-14T11:51:12.235Z,10.46
2022-12-14T11:53:40.548Z,11.12
2022-12-14T11:56:12.998Z,11.68
2022-12-14T11:58:49.201Z,12.26
2022-12-14T12:01:21.307Z,12.48
2022-12-14T12:03:52.634Z,12.61
2022-12-14T12:06:24.284Z,12.61
2022-12-14T12:08:56.965Z,12.93
2022-12-14T12:11:28.091Z,13.16
2022-12-14T12:14:01.619Z,12.92
2022-12-14T12:16:32.817Z,11.98
2022-12-14T12:19:11.800Z,11.16
2022-12-14T12:21:44.675Z,10.41
2022-12-14T12:24:19.502Z,10.11
2022-12-14T12:26:51.021Z,10.18
2022-12-14T12:29:26.394Z,10.60
2022-12-14T12:31:58.813Z,10.92
2022-12-14T12:34:32.001Z,10.86
2022-12-14T12:37:37.469Z,10.29
2022-12-14T12:40:01.365Z,9.63
2022-12-14T12:42:39.338Z,9.75
2022-12-14T12:45:16.887Z,10.31
2022-12-14T12:47:49.764Z,10.98
2022-12-14T12:50:20.398Z,11.69
2022-12-14T12:53:02.812Z,12.28
2022-12-14T12:55:35.493Z,12.65
2022-12-14T12:58:09.913Z,12.69
2022-12-14T13:00:41.229Z,12.88
2022-12-14T13:03:20.218Z,13.08
2022-12-14T13:05:49.296Z,13.34
2022-12-14T13:08:27.484Z,13.58
2022-12-14T13:13:51.351Z,13.63
2022-12-14T13:16:27.358Z,12.92
2022-12-14T13:19:18.963Z,11.92
2022-12-14T13:21:54.579Z,11.01
2022-12-14T13:24:25.753Z,10.73
2022-12-14T13:27:37.104Z,11.10
2022-12-14T13:30:16.052Z,11.64
2022-12-14T13:32:54.474Z,12.19
2022-12-14T13:35:44.921Z,12.57
2022-12-14T13:38:33.391Z,12.75
2022-12-14T13:41:20.976Z,12.87
2022-12-14T13:44:38.641Z,12.90
2022-12-14T13:47:16.568Z,12.88
2022-12-14T13:50:18.454Z,13.01
2022-12-14T13:52:43.958Z,13.22
2022-12-14T13:55:29.395Z,13.49
2022-12-14T13:58:17.407Z,13.61
2022-12-14T14:00:58.702Z,13.68
2022-12-14T14:03:47.466Z,13.09
2022-12-14T14:06:33.792Z,12.23
2022-12-14T14:09:40.308Z,11.29
2022-12-14T14:12:37.202Z,10.37
2022-12-14T14:15:38.365Z,9.61
2022-12-14T14:18:17.574Z,8.89
2022-12-14T14:20:47.724Z,8.46
2022-12-14T14:23:35.784Z,7.97
2022-12-14T14:26:25.953Z,7.49
2022-12-14T14:29:19.833Z,7.11
2022-12-14T14:31:59.971Z,6.70
2022-12-14T14:34:49.563Z,6.39
2022-12-14T14:37:30.561Z,6.08
2022-12-14T14:40:23.868Z,5.83
2022-12-14T14:43:06.573Z,5.55
2022-12-14T14:45:39.331Z,5.32
2022-12-14T14:48:22.262Z,5.11
2022-12-14T14:51:02.015Z,4.94
2022-12-14T14:53:32.945Z,4.65
2022-12-14T14:56:14.327Z,4.45
2022-12-14T14:58:43.281Z,4.30
2022-12-14T15:01:22.219Z,4.16
2022-12-14T15:03:56.386Z,4.04
2022-12-14T15:06:27.535Z,3.95
2022-12-14T15:09:00.841Z,3.84
2022-12-14T15:11:36.215Z,3.73
2022-12-14T15:14:15.069Z,3.58
2022-12-14T15:16:45.875Z,3.45
2022-12-14T15:19:25.084Z,3.27
2022-12-14T15:21:55.534Z,3.16
2022-12-14T15:24:25.306Z,3.05
2022-12-14T15:26:54.256Z,2.94
2022-12-14T15:29:27.705Z,2.84
2022-12-14T15:32:00.135Z,2.75
2022-12-14T15:34:29.779Z,2.65
2022-12-14T15:36:58.746Z,2.55
2022-12-14T15:39:45.815Z,2.42
2022-12-14T15:42:15.646Z,2.30
2022-12-14T15:44:51.105Z,2.21
2022-12-14T15:47:24.818Z,2.14
2022-12-14T15:49:59.717Z,2.07
2022-12-14T15:52:31.517Z,2.01
2022-12-14T15:55:00.925Z,1.96
2022-12-14T15:57:29.051Z,1.88
2022-12-14T15:59:58.746Z,1.83
2022-12-14T16:02:31.123Z,1.83
2022-12-14T16:05:03.467Z,1.81
2022-12-14T16:07:38.513Z,1.76
2022-12-14T16:10:21.317Z,1.70
2022-12-14T16:12:53.710Z,1.62
2022-12-14T16:15:24.711Z,1.54
2022-12-14T16:17:59.266Z,1.45
2022-12-14T16:20:32.314Z,1.36
2022-12-14T16:23:06.554Z,1.28
2022-12-14T16:25:36.706Z,1.22
2022-12-14T16:28:22.653Z,1.10
2022-12-14T16:30:56.592Z,0.98
2022-12-14T16:33:26.007Z,0.91
2022-12-14T16:36:07.400Z,0.76
2022-12-14T16:38:42.662Z,0.78
2022-12-14T16:41:10.941Z,0.78
2022-12-14T16:43:41.369Z,0.78
2022-12-14T16:46:17.877Z,0.72
2022-12-14T16:49:02.557Z,0.76
2022-12-14T16:52:05.659Z,0.80
2022-12-14T16:54:26.633Z,0.80
2022-12-14T16:57:00.049Z,0.77
2022-12-14T16:59:35.726Z,0.76
2022-12-14T17:02:04.189Z,0.74
2022-12-14T17:04:36.322Z,0.78
2022-12-14T17:07:05.853Z,0.76
2022-12-14T17:09:35.460Z,0.75
2022-12-14T17:12:12.457Z,0.72
2022-12-14T17:14:47.564Z,0.67
2022-12-14T17:17:22.136Z,0.65
2022-12-14T17:19:50.425Z,0.61
2022-12-14T17:22:25.705Z,0.61
2022-12-14T17:24:53.750Z,0.62
2022-12-14T17:27:26.647Z,0.58
2022-12-14T17:29:57.302Z,0.53
2022-12-14T17:32:29.941Z,0.44
2022-12-14T17:34:58.176Z,0.39
2022-12-14T17:37:34.135Z,0.34
2022-12-14T17:40:05.222Z,0.28
2022-12-14T17:42:33.293Z,0.22
2022-12-14T17:45:01.766Z,0.12
2022-12-14T17:47:29.916Z,0.09
2022-12-14T17:49:57.965Z,0.05
2022-12-14T17:52:30.310Z,-0.01
2022-12-14T17:54:58.990Z,-0.07
2022-12-14T17:57:27.849Z,-0.12
2022-12-14T18:00:16.190Z,-0.14
2022-12-14T18:02:46.564Z,-0.19
2022-12-14T18:05:20.205Z,-0.20
2022-12-14T18:07:50.386Z,-0.23
2022-12-14T18:10:19.666Z,-0.28
2022-12-14T18:12:49.343Z,-0.29
2022-12-14T18:15:20.667Z,-0.31
2022-12-14T18:17:49.641Z,-0.29
2022-12-14T18:20:18.891Z,-0.29
2022-12-14T18:22:49.552Z,-0.30
2022-12-14T18:25:30.727Z,-0.37
2022-12-14T18:28:00.029Z,-0.36
2022-12-14T18:30:33.427Z,-0.31
2022-12-14T18:33:07.055Z,-0.29
2022-12-14T18:35:36.160Z,-0.28
2022-12-14T18:38:04.320Z,-0.29
2022-12-14T18:40:33.770Z,-0.27
2022-12-14T18:43:01.838Z,-0.25
2022-12-14T18:45:32.015Z,-0.24
2022-12-14T18:48:00.733Z,-0.26
2022-12-14T18:50:30.084Z,-0.27
2022-12-14T18:52:58.474Z,-0.30
2022-12-14T18:55:28.547Z,-0.36
2022-12-14T18:58:00.696Z,-0.44
2022-12-14T19:00:32.617Z,-0.29
2022-12-14T19:03:02.670Z,-0.26
2022-12-14T19:05:31.932Z,-0.19
2022-12-14T19:08:01.550Z,-0.10
2022-12-14T19:10:31.646Z,-0.11
2022-12-14T19:13:01.040Z,-0.03
2022-12-14T19:15:30.578Z,-0.05
2022-12-14T19:17:59.181Z,-0.01
2022-12-14T19:20:29.292Z,-0.02
2022-12-14T19:22:57.521Z,0.01
2022-12-14T19:25:26.194Z,0.06
2022-12-14T19:28:30.361Z,0.08
2022-12-14T19:30:45.126Z,0.13
2022-12-14T19:33:13.563Z,0.12
2022-12-14T19:35:42.193Z,0.15
2022-12-14T19:38:13.635Z,0.18
2022-12-14T19:40:42.610Z,0.15
2022-12-14T19:43:10.636Z,0.15
2022-12-14T19:45:40.124Z,0.06
2022-12-14T19:48:13.097Z,0.13
2022-12-14T19:50:41.462Z,0.16
2022-12-14T19:53:09.502Z,0.20
2022-12-14T19:55:37.567Z,0.20
2022-12-14T19:58:05.597Z,0.18
2022-12-14T20:00:33.719Z,0.19
2022-12-14T20:03:01.816Z,0.16
2022-12-14T20:05:31.402Z,0.13
2022-12-14T20:07:59.471Z,0.10
2022-12-14T20:10:27.521Z,0.12
2022-12-14T20:12:55.553Z,0.10
2022-12-14T20:15:23.627Z,0.07
2022-12-14T20:17:51.632Z,0.07
2022-12-14T20:20:19.692Z,0.09
2022-12-14T20:22:49.399Z,0.05
2022-12-14T20:25:17.581Z,0.10
2022-12-14T20:27:45.617Z,0.16
2022-12-14T20:30:14.078Z,0.24
2022-12-14T20:32:42.093Z,0.27
2022-12-14T20:35:11.985Z,0.34
2022-12-14T20:37:40.110Z,0.39
2022-12-14T20:40:11.378Z,0.38
2022-12-14T20:42:39.479Z,0.36
2022-12-14T20:45:08.632Z,0.42
2022-12-14T20:47:36.898Z,0.42
2022-12-14T20:50:05.374Z,0.34
2022-12-14T20:52:33.384Z,0.34
2022-12-14T20:55:01.471Z,0.42
2022-12-14T20:57:33.051Z,0.42
2022-12-14T21:00:01.432Z,0.40
2022-12-14T21:02:29.743Z,0.48
2022-12-14T21:04:57.902Z,0.55
2022-12-14T21:07:26.497Z,0.58
2022-12-14T21:09:54.700Z,0.54
2022-12-14T21:12:21.807Z,0.58
2022-12-14T21:14:54.074Z,0.53
2022-12-14T21:17:24.059Z,0.58
2022-12-14T21:19:52.217Z,0.48
2022-12-14T21:22:21.933Z,0.49
2022-12-14T21:25:03.084Z,0.54
2022-12-14T21:27:32.899Z,0.58
2022-12-14T21:30:02.328Z,0.57
2022-12-14T21:32:30.517Z,0.65
2022-12-14T21:34:58.572Z,0.75
2022-12-14T21:37:26.968Z,0.78
2022-12-14T21:39:55.884Z,0.82
2022-12-14T21:42:23.858Z,0.96
2022-12-14T21:44:52.993Z,1.11
2022-12-14T21:47:24.491Z,1.20
2022-12-14T21:49:52.652Z,1.25
2022-12-14T21:52:22.965Z,1.32
2022-12-14T21:54:51.464Z,1.20
2022-12-14T21:57:40.332Z,1.31
2022-12-14T22:00:10.325Z,1.35
2022-12-14T22:02:43.039Z,1.36
2022-12-14T22:05:11.402Z,1.19
2022-12-14T22:07:39.476Z,1.20
2022-12-14T22:10:08.265Z,1.20
2022-12-14T22:12:36.532Z,1.13
2022-12-14T22:15:04.903Z,1.06
2022-12-14T22:17:32.972Z,1.02
2022-12-14T22:20:02.357Z,0.93
2022-12-14T22:22:30.450Z,0.81
2022-12-14T22:24:59.658Z,0.76
2022-12-14T22:27:27.725Z,0.68
2022-12-14T22:29:55.749Z,0.71
2022-12-14T22:32:24.091Z,0.67
2022-12-14T22:34:52.105Z,0.66
2022-12-14T22:37:21.896Z,0.61
2022-12-14T22:39:49.961Z,0.62
2022-12-14T22:42:17.960Z,0.47
2022-12-14T22:44:46.030Z,0.53
2022-12-14T22:47:14.033Z,0.47
2022-12-14T22:49:42.037Z,0.53
2022-12-14T22:52:10.164Z,0.45
2022-12-14T22:54:40.611Z,0.47
2022-12-14T22:57:10.997Z,0.51
2022-12-14T22:59:43.476Z,0.53
2022-12-14T23:02:11.821Z,0.51
2022-12-14T23:04:40.365Z,0.53
2022-12-14T23:07:08.498Z,0.57
2022-12-14T23:09:54.112Z,0.49
2022-12-14T23:12:41.169Z,0.48
2022-12-14T23:15:27.056Z,0.50
2022-12-14T23:18:14.009Z,0.54
2022-12-14T23:20:59.275Z,0.45
2022-12-14T23:23:44.626Z,0.54
2022-12-14T23:26:29.894Z,0.47
2022-12-14T23:29:16.869Z,0.59
2022-12-14T23:32:02.194Z,0.61
2022-12-14T23:34:48.112Z,0.65
2022-12-14T23:37:33.898Z,0.63
2022-12-14T23:40:19.297Z,0.68
2022-12-14T23:43:04.936Z,0.74
2022-12-14T23:45:51.855Z,0.66
2022-12-14T23:48:37.653Z,0.74
2022-12-14T23:51:23.357Z,0.64
2022-12-14T23:54:09.674Z,0.71
2022-12-14T23:57:03.423Z,0.77
2022-12-14T23:59:49.926Z,0.75
